Time;durP1;ratioP1;P1;durP2;ratioP2;P2;SDS_P1;SDS_P2;PMS_P1;PMS_P2;Temp;Humidity;BMP_temperature;BMP_pressure;BME280_temperature;BME280_humidity;BME280_pressure;Samples;Min_cycle;Max_cycle;Signal;HPM_P1;HPM_P2
2021/11/29 00:01:14;;;;;;;;;2.00;2.00;;;;;2.15;70.16;100321.88;5075662;28;45559;-81
2021/11/29 00:03:40;;;;;;;;;2.00;1.00;;;;;2.12;70.49;100321.75;5044601;28;47139;-81
2021/11/29 00:06:06;;;;;;;;;0.75;0.75;;;;;2.22;69.96;100334.94;5048345;28;45228;-80
2021/11/29 00:08:31;;;;;;;;;1.50;1.50;;;;;2.09;70.88;100316.53;5059192;28;45390;-82
2021/11/29 00:10:57;;;;;;;;;0.00;0.00;;;;;1.63;70.48;100239.56;5058935;28;45182;-81
2021/11/29 00:13:22;;;;;;;;;1.00;0.75;;;;;2.21;70.60;100353.75;5043009;28;45334;-80
2021/11/29 00:15:48;;;;;;;;;0.00;0.00;;;;;2.25;70.64;100351.34;5044383;28;45342;-81
2021/11/29 00:18:13;;;;;;;;;0.00;0.00;;;;;2.22;70.63;100345.22;5063495;28;45377;-81
2021/11/29 00:20:43;;;;;;;;;0.00;0.00;;;;;2.08;71.32;100337.03;5062056;28;45351;-80
2021/11/29 00:23:09;;;;;;;;;0.00;0.00;;;;;1.84;70.73;100305.31;5062748;28;45300;-80
2021/11/29 00:25:34;;;;;;;;;0.00;0.00;;;;;2.10;70.51;100343.94;5062418;28;45447;-80
2021/11/29 00:28:00;;;;;;;;;0.00;0.00;;;;;2.06;70.28;100352.38;5063054;28;45380;-81
2021/11/29 00:30:25;;;;;;;;;0.50;0.50;;;;;2.14;71.43;100368.91;5061999;28;45287;-81
2021/11/29 00:32:51;;;;;;;;;0.25;0.00;;;;;2.15;70.75;100365.53;5073445;28;48213;-81
2021/11/29 00:35:16;;;;;;;;;0.00;0.00;;;;;2.11;70.46;100358.53;5098925;27;45711;-81
2021/11/29 00:37:44;;;;;;;;;0.00;0.00;;;;;2.24;70.39;100375.25;5081812;28;45387;-82
2021/11/29 00:40:11;;;;;;;;;0.00;0.00;;;;;2.17;70.29;100360.44;5083137;28;45413;-81
2021/11/29 00:42:37;;;;;;;;;1.00;1.00;;;;;2.06;70.15;100336.06;5098572;27;47113;-81
2021/11/29 00:45:05;;;;;;;;;0.00;0.00;;;;;2.24;71.07;100370.13;5083159;28;45291;-81
2021/11/29 00:47:30;;;;;;;;;0.00;0.00;;;;;2.10;70.40;100364.50;5082860;28;45382;-81
2021/11/29 00:49:56;;;;;;;;;0.25;0.25;;;;;2.01;70.61;100351.31;5088958;28;45442;-80
2021/11/29 00:52:22;;;;;;;;;1.75;1.75;;;;;1.97;70.77;100344.31;5089619;28;45259;-81
2021/11/29 00:54:47;;;;;;;;;0.00;0.00;;;;;2.11;70.94;100381.66;5089131;28;45385;-82
2021/11/29 00:57:12;;;;;;;;;1.00;1.00;;;;;1.99;70.75;100360.66;5081881;28;45683;-79
2021/11/29 00:59:38;;;;;;;;;0.00;0.00;;;;;2.22;70.94;100396.59;5051551;28;45539;-81
2021/11/29 01:02:05;;;;;;;;;0.00;0.00;;;;;2.18;70.95;100395.59;5063504;28;45450;-82
2021/11/29 01:04:31;;;;;;;;;0.75;0.00;;;;;2.22;70.35;100392.34;5062297;28;45387;-81
2021/11/29 01:06:56;;;;;;;;;1.75;0.50;;;;;2.12;70.21;100379.97;5062231;28;45589;-80
2021/11/29 01:09:21;;;;;;;;;1.00;0.75;;;;;2.21;71.15;100395.72;5060869;28;45533;-81
2021/11/29 01:11:47;;;;;;;;;1.00;1.00;;;;;1.96;70.63;100353.69;5061929;28;46491;-80
2021/11/29 01:14:12;;;;;;;;;0.25;0.00;;;;;2.26;70.70;100414.75;5062039;28;45335;-81
2021/11/29 01:16:38;;;;;;;;;2.00;0.75;;;;;1.98;70.73;100361.47;5062141;28;45330;-81
2021/11/29 01:19:03;;;;;;;;;0.75;0.50;;;;;2.13;70.29;100387.72;5062312;28;45577;-81
2021/11/29 01:21:29;;;;;;;;;0.25;0.00;;;;;2.21;70.01;100392.28;5062959;28;45347;-82
2021/11/29 01:23:54;;;;;;;;;0.25;0.25;;;;;2.23;70.15;100403.47;5062557;28;45346;-80
2021/11/29 01:26:19;;;;;;;;;0.00;0.00;;;;;2.25;70.09;100418.13;5062222;28;45144;-82
2021/11/29 01:28:45;;;;;;;;;0.00;0.00;;;;;2.23;70.37;100413.75;5062230;28;45426;-81
2021/11/29 01:31:10;;;;;;;;;1.00;1.00;;;;;2.23;70.80;100413.75;5062091;28;45299;-80
2021/11/29 01:33:36;;;;;;;;;1.50;1.00;;;;;2.28;70.41;100422.50;5081186;28;45350;-81
2021/11/29 01:36:02;;;;;;;;;0.00;0.00;;;;;2.26;70.59;100427.59;5100635;27;45348;-81
2021/11/29 01:38:27;;;;;;;;;0.25;0.25;;;;;2.11;70.19;100401.34;5086347;28;45385;-81
2021/11/29 01:40:53;;;;;;;;;0.00;0.00;;;;;2.16;70.73;100417.78;5085292;28;45465;-81
2021/11/29 01:43:19;;;;;;;;;0.00;0.00;;;;;2.32;70.61;100426.06;5084357;28;45414;-81
2021/11/29 01:45:54;;;;;;;;;0.50;0.50;;;;;2.39;70.04;100428.91;5082125;28;45452;-81
2021/11/29 01:48:21;;;;;;;;;0.00;0.00;;;;;2.34;70.12;100437.28;5083136;28;45524;-82
2021/11/29 01:50:49;;;;;;;;;1.00;0.75;;;;;2.25;70.07;100420.72;5082401;28;45449;-80
2021/11/29 01:53:16;;;;;;;;;1.50;1.00;;;;;2.03;70.53;100383.06;5081682;28;45236;-80
2021/11/29 01:55:43;;;;;;;;;0.25;0.25;;;;;2.27;70.22;100413.91;5082159;28;45377;-80
2021/11/29 01:58:09;;;;;;;;;0.00;0.00;;;;;2.18;69.96;100402.44;5085214;28;45528;-81
2021/11/29 02:00:40;;;;;;;;;0.00;0.00;;;;;2.32;70.42;100428.63;5085572;28;46349;-81
2021/11/29 02:03:06;;;;;;;;;2.25;1.25;;;;;2.20;70.28;100411.94;5078846;28;45348;-81
2021/11/29 02:05:31;;;;;;;;;1.75;1.00;;;;;2.13;69.91;100417.66;5065065;28;45119;-81
2021/11/29 02:07:57;;;;;;;;;0.25;0.25;;;;;2.20;70.07;100429.91;5065287;28;45309;-80
2021/11/29 02:10:25;;;;;;;;;0.25;0.25;;;;;1.66;69.98;100344.03;5065059;28;45537;-81
2021/11/29 02:12:50;;;;;;;;;1.00;0.00;;;;;1.91;69.97;100396.31;5065247;28;45511;-81
2021/11/29 02:15:18;;;;;;;;;0.50;0.50;;;;;1.59;70.04;100360.00;5063903;28;45377;-81
2021/11/29 02:17:45;;;;;;;;;1.00;1.00;;;;;2.20;71.00;100457.31;5065281;28;45554;-81
2021/11/29 02:20:11;;;;;;;;;0.00;0.00;;;;;2.07;70.08;100440.53;5064409;28;46676;-81
2021/11/29 02:22:38;;;;;;;;;0.00;0.00;;;;;1.99;70.46;100446.25;5064850;28;45229;-81
2021/11/29 02:25:05;;;;;;;;;0.00;0.00;;;;;2.13;70.79;100458.75;5064367;28;45425;-80
2021/11/29 02:27:30;;;;;;;;;0.00;0.00;;;;;2.00;70.34;100439.44;5066499;28;45481;-81
2021/11/29 02:29:56;;;;;;;;;0.00;0.00;;;;;2.01;70.00;100439.50;5064774;28;46180;-81
2021/11/29 02:32:22;;;;;;;;;0.25;0.25;;;;;2.12;70.70;100459.56;5073062;28;45411;-80
2021/11/29 02:34:48;;;;;;;;;1.00;0.00;;;;;1.99;70.45;100445.41;5085182;28;45426;-79
2021/11/29 02:37:14;;;;;;;;;0.00;0.00;;;;;2.09;70.20;100452.63;5085583;28;45244;-80
2021/11/29 02:39:41;;;;;;;;;0.00;0.00;;;;;2.09;70.61;100467.16;5088844;28;45741;-81
2021/11/29 02:42:09;;;;;;;;;0.00;0.00;;;;;2.09;70.50;100459.47;5085654;28;45400;-80
2021/11/29 02:44:35;;;;;;;;;0.00;0.00;;;;;2.01;70.10;100446.31;5085265;28;45481;-80
2021/11/29 02:47:01;;;;;;;;;0.00;0.00;;;;;1.93;70.44;100432.31;5084734;28;45409;-80
2021/11/29 02:49:27;;;;;;;;;1.00;1.00;;;;;1.84;70.15;100430.25;5084370;28;47191;-80
2021/11/29 02:51:56;;;;;;;;;1.00;0.00;;;;;2.13;70.59;100485.31;5084566;28;45303;-80
2021/11/29 02:54:25;;;;;;;;;0.25;0.25;;;;;2.08;70.35;100484.25;5100138;27;45488;-80
2021/11/29 02:56:55;;;;;;;;;0.00;0.00;;;;;1.87;70.40;100450.91;5080100;28;45717;-81
2021/11/29 02:59:30;;;;;;;;;0.50;0.00;;;;;2.00;70.52;100475.38;5064087;28;45369;-80
2021/11/29 03:02:00;;;;;;;;;0.00;0.00;;;;;1.77;70.88;100444.53;5079385;28;45393;-81
2021/11/29 03:04:28;;;;;;;;;0.00;0.00;;;;;1.97;70.87;100494.13;5063381;28;45337;-81
2021/11/29 03:06:54;;;;;;;;;0.25;0.00;;;;;1.73;71.04;100461.50;5062834;28;45495;-80
2021/11/29 03:09:20;;;;;;;;;0.00;0.00;;;;;1.71;70.65;100458.00;5062433;28;46247;-80
2021/11/29 03:11:47;;;;;;;;;0.00;0.00;;;;;1.98;70.51;100502.69;5064235;28;45409;-80
2021/11/29 03:14:13;;;;;;;;;0.00;0.00;;;;;1.81;71.28;100477.19;5064144;28;45166;-80
2021/11/29 03:16:39;;;;;;;;;1.00;0.00;;;;;1.71;70.62;100469.97;5064126;28;45531;-80
2021/11/29 03:19:05;;;;;;;;;0.00;0.00;;;;;1.90;70.75;100499.81;5079803;28;48033;-81
2021/11/29 03:21:30;;;;;;;;;0.00;0.00;;;;;1.93;71.08;100520.47;5067204;28;45407;-80
2021/11/29 03:23:59;;;;;;;;;0.00;0.00;;;;;1.90;71.51;100521.22;5064932;28;45422;-80
2021/11/29 03:26:27;;;;;;;;;0.00;0.00;;;;;1.69;70.68;100497.25;5064121;28;45347;-80
2021/11/29 03:28:55;;;;;;;;;0.00;0.00;;;;;1.75;71.25;100505.22;5063755;28;46229;-80
2021/11/29 03:31:22;;;;;;;;;1.75;0.00;;;;;1.76;71.39;100504.38;5063879;28;45452;-79
2021/11/29 03:33:48;;;;;;;;;0.00;0.00;;;;;1.66;71.72;100482.63;5059027;28;45503;-80
2021/11/29 03:36:14;;;;;;;;;0.00;0.00;;;;;1.94;71.49;100531.63;5042335;28;45285;-79
2021/11/29 03:38:40;;;;;;;;;0.00;0.00;;;;;1.72;71.61;100502.50;5043065;28;45431;-80
2021/11/29 03:41:07;;;;;;;;;1.00;1.00;;;;;1.71;70.94;100498.19;5042933;28;45217;-80
2021/11/29 03:43:33;;;;;;;;;0.50;0.50;;;;;1.76;71.01;100523.25;5043427;28;45393;-79
2021/11/29 03:45:59;;;;;;;;;5.50;0.00;;;;;1.59;71.70;100488.31;5025313;28;45436;-79
2021/11/29 03:48:24;;;;;;;;;0.75;0.00;;;;;1.84;71.35;100538.06;5042969;28;45430;-79
2021/11/29 03:50:49;;;;;;;;;0.00;0.00;;;;;1.94;71.42;100545.34;5041856;28;45328;-79
2021/11/29 03:53:15;;;;;;;;;0.00;0.00;;;;;1.86;71.42;100529.63;5041697;28;45348;-81
2021/11/29 03:55:41;;;;;;;;;0.00;0.00;;;;;1.70;71.20;100506.69;5025572;28;45337;-80
2021/11/29 03:58:06;;;;;;;;;0.00;0.00;;;;;2.09;71.32;100568.22;5057985;28;45435;-80
2021/11/29 04:00:32;;;;;;;;;0.50;0.00;;;;;1.96;70.92;100543.69;5063330;28;45382;-80
2021/11/29 04:02:58;;;;;;;;;0.00;0.00;;;;;1.98;70.77;100546.31;5063181;28;46085;-81
2021/11/29 04:05:23;;;;;;;;;1.00;0.75;;;;;2.13;71.56;100576.91;5063014;28;45328;-80
2021/11/29 04:07:49;;;;;;;;;0.00;0.00;;;;;1.92;71.08;100551.22;5062642;28;45937;-80
2021/11/29 04:10:15;;;;;;;;;1.00;1.00;;;;;2.06;71.09;100572.31;5062894;28;45451;-81
2021/11/29 04:12:41;;;;;;;;;0.00;0.00;;;;;1.93;70.59;100551.28;5062978;28;45407;-80
2021/11/29 04:15:07;;;;;;;;;0.00;0.00;;;;;1.95;71.10;100554.78;5063261;28;45232;-80
2021/11/29 04:17:32;;;;;;;;;0.00;0.00;;;;;2.07;71.37;100569.81;5040857;28;48226;-80
2021/11/29 04:19:58;;;;;;;;;0.25;0.00;;;;;2.09;71.01;100583.63;5045693;28;45453;-79
2021/11/29 04:22:24;;;;;;;;;1.00;1.00;;;;;1.98;71.36;100574.56;5044090;28;45506;-79
2021/11/29 04:24:50;;;;;;;;;0.00;0.00;;;;;2.02;70.70;100585.03;5042928;28;45469;-80
2021/11/29 04:27:16;;;;;;;;;1.00;0.00;;;;;2.07;71.59;100592.03;5042575;28;46148;-79
2021/11/29 04:29:44;;;;;;;;;0.00;0.00;;;;;2.07;71.31;100587.81;5050476;28;45493;-79
2021/11/29 04:32:10;;;;;;;;;0.00;0.00;;;;;2.15;70.88;100588.97;5084423;28;45406;-79
2021/11/29 04:34:36;;;;;;;;;0.25;0.25;;;;;2.10;70.40;100581.91;5047212;28;45311;-79
2021/11/29 04:37:03;;;;;;;;;0.00;0.00;;;;;2.12;71.38;100596.56;5045687;28;45377;-81
2021/11/29 04:39:33;;;;;;;;;0.00;0.00;;;;;1.84;70.86;100564.59;5043409;28;45470;-80
2021/11/29 04:41:59;;;;;;;;;0.00;0.00;;;;;1.77;71.02;100563.50;5058538;28;45392;-81
2021/11/29 04:44:25;;;;;;;;;0.00;0.00;;;;;2.04;71.66;100608.22;5058466;28;45536;-80
2021/11/29 04:46:51;;;;;;;;;1.25;0.50;;;;;2.02;71.70;100609.84;5074788;28;47097;-80
2021/11/29 04:49:16;;;;;;;;;0.00;0.00;;;;;1.89;71.47;100585.34;5042413;28;45278;-80
2021/11/29 04:51:42;;;;;;;;;0.00;0.00;;;;;2.00;71.05;100616.63;5042564;28;45464;-80
2021/11/29 04:54:09;;;;;;;;;0.00;0.00;;;;;1.88;71.88;100604.13;5057735;28;45391;-81
2021/11/29 04:56:35;;;;;;;;;0.00;0.00;;;;;1.95;71.37;100608.72;5041886;28;45385;-81
2021/11/29 04:59:00;;;;;;;;;0.00;0.00;;;;;1.92;71.67;100590.59;5041757;28;45518;-81
2021/11/29 05:01:25;;;;;;;;;0.00;0.00;;;;;1.85;71.33;100586.03;5058110;28;45466;-86
2021/11/29 05:03:52;;;;;;;;;0.00;0.00;;;;;1.88;70.67;100589.63;5041575;28;45807;-86
2021/11/29 05:06:17;;;;;;;;;0.00;0.00;;;;;2.19;70.93;100640.47;5042468;28;45420;-86
2021/11/29 05:08:43;;;;;;;;;0.00;0.00;;;;;2.09;70.94;100628.97;5077678;28;45311;-86
2021/11/29 05:11:08;;;;;;;;;0.00;0.00;;;;;1.91;71.02;100604.25;5040672;28;45304;-87
2021/11/29 05:13:34;;;;;;;;;0.00;0.00;;;;;2.08;71.15;100619.50;5041414;28;45430;-88
2021/11/29 05:16:00;;;;;;;;;0.00;0.00;;;;;2.19;70.86;100641.38;5029173;27;45506;-87
2021/11/29 05:18:26;;;;;;;;;0.00;0.00;;;;;1.91;71.69;100588.88;5042149;28;45397;-86
2021/11/29 05:20:51;;;;;;;;;2.75;1.00;;;;;2.13;71.19;100636.84;5053028;28;45301;-86
2021/11/29 05:23:17;;;;;;;;;2.00;0.00;;;;;2.14;71.59;100642.84;5070126;28;45328;-86
2021/11/29 05:25:43;;;;;;;;;0.00;0.00;;;;;2.32;70.87;100670.13;5066375;28;45049;-86
2021/11/29 05:28:09;;;;;;;;;0.00;0.00;;;;;2.21;70.49;100657.72;5072104;28;45223;-87
2021/11/29 05:30:34;;;;;;;;;0.00;0.00;;;;;2.29;70.74;100673.44;5060090;28;45345;-87
2021/11/29 05:33:00;;;;;;;;;0.00;0.00;;;;;2.19;70.54;100655.88;5065184;28;46152;-87
2021/11/29 05:35:25;;;;;;;;;0.00;0.00;;;;;2.13;70.39;100656.50;5073321;28;45469;-87
2021/11/29 05:37:51;;;;;;;;;0.00;0.00;;;;;2.09;70.44;100670.06;5066000;28;45413;-87
2021/11/29 05:40:16;;;;;;;;;0.00;0.00;;;;;2.13;70.95;100693.38;5045144;28;45302;-86
2021/11/29 05:42:43;;;;;;;;;0.00;0.00;;;;;2.18;71.30;100692.69;5073956;28;44979;-82
2021/11/29 05:45:11;;;;;;;;;0.00;0.00;;;;;2.10;71.31;100700.03;5062596;28;45381;-82
2021/11/29 05:47:37;;;;;;;;;0.00;0.00;;;;;2.11;71.16;100704.41;5048632;28;45306;-84
2021/11/29 05:50:07;;;;;;;;;0.00;0.00;;;;;2.01;71.55;100685.13;5028465;28;45403;-87
2021/11/29 05:52:33;;;;;;;;;0.00;0.00;;;;;2.13;71.31;100698.50;5061226;28;45559;-87
2021/11/29 05:54:59;;;;;;;;;0.00;0.00;;;;;2.17;71.31;100727.75;5058693;28;45443;-87
2021/11/29 05:57:25;;;;;;;;;0.00;0.00;;;;;2.17;71.52;100722.59;5059129;28;45280;-86
2021/11/29 05:59:50;;;;;;;;;0.25;0.25;;;;;2.18;71.43;100716.69;5053930;28;45304;-87
2021/11/29 06:02:16;;;;;;;;;0.00;0.00;;;;;2.22;71.27;100718.56;5058943;28;45458;-79
2021/11/29 06:04:41;;;;;;;;;0.00;0.00;;;;;2.17;71.41;100717.47;5054762;28;45463;-79
2021/11/29 06:07:06;;;;;;;;;1.00;0.00;;;;;2.22;71.10;100722.81;5051924;28;45234;-80
2021/11/29 06:09:32;;;;;;;;;0.00;0.00;;;;;2.08;71.12;100701.69;5036193;28;45343;-85
2021/11/29 06:11:57;;;;;;;;;0.00;0.00;;;;;2.23;71.14;100724.56;5073981;28;45624;-85
2021/11/29 06:14:25;;;;;;;;;0.00;0.00;;;;;2.33;70.81;100747.25;5060741;28;45311;-85
2021/11/29 06:16:51;;;;;;;;;0.00;0.00;;;;;2.20;71.25;100719.31;5059904;28;45401;-84
2021/11/29 06:19:17;;;;;;;;;0.00;0.00;;;;;2.19;71.40;100722.69;5060560;28;45310;-85
2021/11/29 06:21:42;;;;;;;;;0.00;0.00;;;;;2.05;70.94;100701.56;5077573;28;45519;-84
2021/11/29 06:24:07;;;;;;;;;0.00;0.00;;;;;2.15;70.82;100714.84;5049836;28;45336;-83
2021/11/29 06:26:33;;;;;;;;;0.50;0.50;;;;;2.47;70.70;100764.97;5044345;28;45380;-83
2021/11/29 06:28:58;;;;;;;;;0.00;0.00;;;;;2.10;71.47;100702.63;5040835;28;45381;-85
2021/11/29 06:31:24;;;;;;;;;0.00;0.00;;;;;2.51;71.17;100775.44;5043175;28;45144;-85
2021/11/29 06:33:49;;;;;;;;;0.00;0.00;;;;;2.53;71.04;100781.53;5067110;28;45793;-83
2021/11/29 06:36:14;;;;;;;;;1.00;1.00;;;;;2.35;71.24;100749.91;5047355;28;45419;-82
2021/11/29 06:38:41;;;;;;;;;0.00;0.00;;;;;2.57;71.14;100790.22;5069781;28;45309;-84
2021/11/29 06:41:06;;;;;;;;;0.00;0.00;;;;;2.52;70.32;100790.03;5070184;28;45708;-83
2021/11/29 06:43:32;;;;;;;;;0.00;0.00;;;;;2.58;70.90;100814.25;5060459;28;45398;-86
2021/11/29 06:45:57;;;;;;;;;1.00;0.00;;;;;2.34;70.37;100766.13;5065564;28;45364;-85
2021/11/29 06:48:23;;;;;;;;;0.00;0.00;;;;;2.43;71.18;100781.94;5068505;28;45391;-85
2021/11/29 06:50:49;;;;;;;;;0.00;0.00;;;;;2.48;70.46;100798.44;5046137;28;45513;-87
2021/11/29 06:53:15;;;;;;;;;0.00;0.00;;;;;2.63;70.75;100815.31;5056082;28;47199;-85
2021/11/29 06:55:42;;;;;;;;;0.00;0.00;;;;;2.59;70.36;100804.03;5061925;28;45665;-86
2021/11/29 06:58:07;;;;;;;;;0.00;0.00;;;;;2.73;70.91;100820.03;5081315;28;45440;-82
2021/11/29 07:00:33;;;;;;;;;0.00;0.00;;;;;2.71;70.53;100813.06;5061960;28;46426;-86
2021/11/29 07:02:58;;;;;;;;;0.00;0.00;;;;;2.80;69.85;100839.19;5081581;28;47374;-86
2021/11/29 07:05:27;;;;;;;;;1.25;0.00;;;;;2.57;71.06;100805.66;5066109;28;45426;-87
2021/11/29 07:07:53;;;;;;;;;0.00;0.00;;;;;2.71;69.90;100833.63;5063804;28;45209;-85
2021/11/29 07:10:20;;;;;;;;;0.00;0.00;;;;;2.73;70.39;100858.59;5079962;28;45394;-81
2021/11/29 07:12:46;;;;;;;;;0.00;0.00;;;;;2.77;70.56;100872.47;5065449;28;46324;-81
2021/11/29 07:15:12;;;;;;;;;0.00;0.00;;;;;2.70;70.79;100867.88;5054733;28;45429;-81
2021/11/29 07:17:38;;;;;;;;;0.00;0.00;;;;;2.62;70.23;100867.53;5059474;28;45466;-82
2021/11/29 07:20:05;;;;;;;;;0.75;0.50;;;;;2.36;70.40;100836.47;5062397;28;45332;-84
2021/11/29 07:22:30;;;;;;;;;1.00;1.00;;;;;2.41;70.34;100863.22;5062001;28;46639;-85
2021/11/29 07:25:00;;;;;;;;;0.00;0.00;;;;;2.36;70.70;100854.44;5062302;28;45387;-85
2021/11/29 07:27:26;;;;;;;;;0.50;0.50;;;;;2.50;70.53;100873.91;5064075;28;45403;-86
2021/11/29 07:29:52;;;;;;;;;0.00;0.00;;;;;2.56;70.68;100891.28;5063736;28;45233;-83
2021/11/29 07:32:19;;;;;;;;;0.00;0.00;;;;;2.56;70.73;100887.84;5086642;27;47234;-84
2021/11/29 07:34:45;;;;;;;;;0.00;0.00;;;;;2.40;70.00;100870.06;5099679;27;46083;-83
2021/11/29 07:37:10;;;;;;;;;0.00;0.00;;;;;2.64;70.43;100909.63;5096807;27;45452;-83
2021/11/29 07:39:36;;;;;;;;;0.00;0.00;;;;;2.48;70.21;100879.81;5096666;27;45722;-83
2021/11/29 07:42:02;;;;;;;;;0.00;0.00;;;;;2.57;70.79;100911.03;5080909;28;46063;-83
2021/11/29 07:44:27;;;;;;;;;0.00;0.00;;;;;2.53;70.89;100899.75;5097668;27;45387;-83
2021/11/29 07:46:52;;;;;;;;;0.00;0.00;;;;;2.50;70.71;100876.50;5099167;27;45767;-85
2021/11/29 07:49:18;;;;;;;;;0.00;0.00;;;;;2.69;70.08;100903.00;5084322;28;45533;-83
2021/11/29 07:51:43;;;;;;;;;4.50;1.75;;;;;2.49;69.81;100868.72;5085453;28;45427;-84
2021/11/29 07:54:09;;;;;;;;;1.00;1.00;;;;;2.79;70.65;100910.28;5085815;28;45271;-84
2021/11/29 07:56:34;;;;;;;;;2.00;1.50;;;;;2.76;70.62;100917.00;5085809;28;44782;-79
2021/11/29 07:59:00;;;;;;;;;0.00;0.00;;;;;2.41;70.46;100858.09;5061160;28;45279;-81
2021/11/29 08:01:25;;;;;;;;;2.75;1.00;;;;;2.78;70.18;100923.06;5051699;28;45760;-82
2021/11/29 08:03:51;;;;;;;;;0.00;0.00;;;;;2.82;70.65;100932.69;5061951;28;45442;-80
2021/11/29 08:06:16;;;;;;;;;0.75;0.75;;;;;2.45;70.38;100870.25;5061987;28;45891;-80
2021/11/29 08:08:43;;;;;;;;;0.25;0.25;;;;;2.84;70.58;100932.75;5079151;28;45518;-80
2021/11/29 08:11:09;;;;;;;;;1.50;1.00;;;;;2.70;70.54;100906.44;5079829;28;48267;-82
2021/11/29 08:13:34;;;;;;;;;2.00;1.75;;;;;2.91;70.81;100940.81;5061463;28;45513;-81
2021/11/29 08:15:59;;;;;;;;;4.50;0.25;;;;;2.75;70.06;100910.97;5075536;28;45359;-86
2021/11/29 08:18:25;;;;;;;;;0.00;0.00;;;;;2.72;70.04;100894.53;5069851;28;45315;-80
2021/11/29 08:20:50;;;;;;;;;0.25;0.00;;;;;3.03;69.59;100955.00;5091571;27;47074;-83
2021/11/29 08:23:16;;;;;;;;;0.00;0.00;;;;;2.79;69.85;100905.16;5084163;28;45298;-83
2021/11/29 08:25:47;;;;;;;;;0.75;0.75;;;;;2.81;70.11;100909.50;5088991;27;45473;-85
2021/11/29 08:28:13;;;;;;;;;1.00;1.00;;;;;2.87;69.59;100928.63;5059818;28;45445;-80
2021/11/29 08:30:39;;;;;;;;;0.00;0.00;;;;;3.11;69.72;100970.75;5078544;28;46145;-79
2021/11/29 08:33:05;;;;;;;;;0.50;0.50;;;;;3.06;70.27;100973.13;5068957;28;45452;-77
2021/11/29 08:35:31;;;;;;;;;0.25;0.25;;;;;3.06;69.37;100977.41;5062339;28;45360;-78
2021/11/29 08:37:58;;;;;;;;;0.50;0.50;;;;;2.82;70.07;100963.53;5070978;28;45489;-77
2021/11/29 08:40:27;;;;;;;;;0.25;0.25;;;;;2.88;70.34;100984.38;5096771;27;47022;-78
2021/11/29 08:42:55;;;;;;;;;2.00;0.75;;;;;2.90;70.19;100974.16;5074296;28;45497;-77
2021/11/29 08:45:21;;;;;;;;;3.75;0.75;;;;;2.97;70.07;100971.03;5073144;28;45423;-79
2021/11/29 08:47:46;;;;;;;;;0.75;0.75;;;;;3.00;69.35;100965.19;5072838;28;45358;-81
2021/11/29 08:50:12;;;;;;;;;0.00;0.00;;;;;3.27;69.57;100992.88;5065588;28;45412;-81
2021/11/29 08:52:38;;;;;;;;;0.00;0.00;;;;;3.31;69.91;100979.34;5078760;28;45412;-80
2021/11/29 08:55:06;;;;;;;;;1.00;0.50;;;;;3.42;69.50;100982.38;5069202;28;45421;-83
2021/11/29 08:57:32;;;;;;;;;0.25;0.25;;;;;3.41;69.35;100967.75;5078535;27;45734;-80
2021/11/29 08:59:58;;;;;;;;;0.00;0.00;;;;;3.58;69.83;100991.59;5068408;28;45545;-80
2021/11/29 09:02:23;;;;;;;;;1.75;1.75;;;;;3.40;69.26;100955.69;5058825;28;45990;-80
2021/11/29 09:04:48;;;;;;;;;0.00;0.00;;;;;3.54;68.79;100990.63;5068357;28;45435;-83
2021/11/29 09:07:14;;;;;;;;;1.00;1.00;;;;;3.41;68.55;100973.78;5066186;28;45389;-81
2021/11/29 09:09:39;;;;;;;;;1.50;1.00;;;;;3.57;69.68;100999.25;5073201;28;45315;-81
2021/11/29 09:12:05;;;;;;;;;0.00;0.00;;;;;3.37;69.00;100966.72;5065461;28;45363;-78
2021/11/29 09:14:31;;;;;;;;;2.00;2.00;;;;;3.57;68.21;101006.97;5078050;28;45367;-79
2021/11/29 09:16:57;;;;;;;;;0.00;0.00;;;;;3.62;69.66;100997.78;5069007;28;45889;-81
2021/11/29 09:19:23;;;;;;;;;0.00;0.00;;;;;3.56;69.15;100990.69;5079761;28;45881;-80
2021/11/29 09:21:49;;;;;;;;;1.00;1.00;;;;;3.52;69.21;100987.09;5080495;28;45408;-78
2021/11/29 09:24:14;;;;;;;;;2.75;2.00;;;;;3.84;68.26;101021.81;5072892;28;45331;-78
2021/11/29 09:26:39;;;;;;;;;0.00;0.00;;;;;3.70;68.42;100990.38;5074922;28;45528;-80
2021/11/29 09:29:05;;;;;;;;;1.75;1.75;;;;;4.00;68.91;101002.72;5066036;28;45544;-80
2021/11/29 09:31:30;;;;;;;;;0.25;0.25;;;;;3.99;68.03;100995.81;5069467;28;45500;-79
2021/11/29 09:33:56;;;;;;;;;0.00;0.00;;;;;4.26;68.15;101032.09;5074553;28;45430;-79
2021/11/29 09:36:21;;;;;;;;;2.50;1.00;;;;;4.13;67.50;100994.66;5063758;28;45582;-78
2021/11/29 09:38:46;;;;;;;;;0.00;0.00;;;;;4.10;67.40;100991.09;5075058;28;45411;-79
2021/11/29 09:41:12;;;;;;;;;1.25;1.25;;;;;4.32;67.84;101031.47;5070671;28;45464;-79
2021/11/29 09:43:39;;;;;;;;;0.00;0.00;;;;;4.51;67.56;101056.25;5065272;28;45538;-78
2021/11/29 09:46:06;;;;;;;;;0.00;0.00;;;;;4.54;67.75;101043.47;5063225;28;45432;-78
2021/11/29 09:48:32;;;;;;;;;1.75;1.25;;;;;4.35;67.31;101003.22;5063394;28;45425;-79
2021/11/29 09:50:58;;;;;;;;;3.00;1.75;;;;;4.65;67.29;101059.34;5063793;28;45328;-77
2021/11/29 09:53:28;;;;;;;;;1.50;0.75;;;;;4.69;67.07;101048.34;5076143;27;46976;-78
2021/11/29 09:55:54;;;;;;;;;1.00;1.00;;;;;4.65;67.33;101058.47;5074000;28;45542;-78
2021/11/29 09:58:20;;;;;;;;;0.00;0.00;;;;;4.61;67.05;101065.22;5041013;28;47335;-78
2021/11/29 10:00:52;;;;;;;;;0.00;0.00;;;;;4.58;67.10;101067.69;5067826;28;45279;-79
2021/11/29 10:03:18;;;;;;;;;1.00;1.00;;;;;4.63;67.21;101062.72;5086248;27;45440;-77
2021/11/29 10:05:44;;;;;;;;;0.00;0.00;;;;;4.85;67.32;101068.66;5059922;28;45529;-78
2021/11/29 10:08:29;;;;;;;;;0.00;0.00;;;;;4.93;66.63;101062.09;5070483;28;46045;-79
2021/11/29 10:10:58;;;;;;;;;1.00;0.00;;;;;4.97;66.56;101045.03;5060490;28;45470;-80
2021/11/29 10:13:24;;;;;;;;;0.50;0.50;;;;;5.02;66.30;101075.34;5086006;27;45834;-80
2021/11/29 10:15:51;;;;;;;;;0.50;0.50;;;;;5.03;66.34;101074.50;5058811;28;45365;-79
2021/11/29 10:18:24;;;;;;;;;0.50;0.50;;;;;5.16;66.68;101077.53;5075127;28;45611;-80
2021/11/29 10:20:57;;;;;;;;;0.00;0.00;;;;;4.91;66.08;101048.25;5068262;28;45442;-79
2021/11/29 10:23:37;;;;;;;;;0.00;0.00;;;;;5.14;66.74;101068.84;5080465;28;45354;-80
2021/11/29 10:26:07;;;;;;;;;0.00;0.00;;;;;5.12;66.08;101066.25;5067268;28;45701;-79
2021/11/29 10:28:39;;;;;;;;;0.00;0.00;;;;;4.98;66.04;101027.03;5079800;28;45455;-76
2021/11/29 10:31:06;;;;;;;;;2.00;0.50;;;;;5.30;65.79;101080.66;5070270;28;45433;-77
2021/11/29 10:33:32;;;;;;;;;0.00;0.00;;;;;5.28;65.66;101082.28;5075747;28;45459;-77
2021/11/29 10:36:17;;;;;;;;;1.00;1.00;;;;;5.29;66.03;101084.91;5068094;28;45527;-76
2021/11/29 10:38:47;;;;;;;;;0.00;0.00;;;;;5.22;65.62;101085.53;5065721;28;45678;-77
2021/11/29 10:41:13;;;;;;;;;2.00;2.00;;;;;5.28;65.72;101075.41;5074494;28;45532;-78
2021/11/29 10:43:41;;;;;;;;;0.50;0.50;;;;;5.25;65.78;101069.25;5080030;28;45313;-76
2021/11/29 10:46:21;;;;;;;;;0.00;0.00;;;;;5.17;66.06;101074.13;5065424;28;45854;-81
2021/11/29 10:48:47;;;;;;;;;0.00;0.00;;;;;5.19;66.08;101077.66;5061488;28;47325;-78
2021/11/29 10:51:15;;;;;;;;;1.00;1.00;;;;;5.27;65.99;101083.97;5065640;28;45457;-78
2021/11/29 10:53:48;;;;;;;;;2.00;0.50;;;;;5.30;65.63;101072.91;5073085;28;45373;-78
2021/11/29 10:56:14;;;;;;;;;1.00;1.00;;;;;5.34;66.27;101067.00;5078487;28;45363;-77
2021/11/29 10:58:44;;;;;;;;;0.75;0.00;;;;;5.23;66.09;101068.34;5065930;28;46239;-76
2021/11/29 11:01:11;;;;;;;;;1.00;1.00;;;;;5.25;66.21;101072.72;5071555;28;45366;-78
2021/11/29 11:03:56;;;;;;;;;0.00;0.00;;;;;5.44;66.21;101094.03;5081079;27;45497;-77
2021/11/29 11:06:26;;;;;;;;;0.00;0.00;;;;;5.48;65.98;101092.44;5078263;28;45455;-78
2021/11/29 11:08:53;;;;;;;;;0.50;0.00;;;;;5.45;65.85;101095.78;5076035;28;46001;-79
2021/11/29 11:14:55;;;;;;;;;0.00;0.00;;;;;5.41;66.30;101060.34;5035563;28;45509;-78
2021/11/29 11:17:31;;;;;;;;;0.00;0.00;;;;;4.68;65.96;100955.44;5078409;27;45705;-79
2021/11/29 11:20:07;;;;;;;;;0.50;0.50;;;;;5.51;66.05;101095.13;5073557;28;45554;-79
2021/11/29 11:22:35;;;;;;;;;3.00;0.00;;;;;5.58;66.49;101089.38;5058903;28;45413;-81
2021/11/29 11:25:12;;;;;;;;;0.25;0.25;;;;;5.47;66.39;101052.81;5084681;28;45196;-81
2021/11/29 11:27:58;;;;;;;;;0.00;0.00;;;;;5.57;66.16;101091.06;5063991;28;45410;-82
2021/11/29 11:30:26;;;;;;;;;0.67;0.67;;;;;5.51;66.15;101082.22;5079728;27;47350;-82
2021/11/29 11:32:57;;;;;;;;;0.25;0.25;;;;;5.04;65.88;100993.69;5063103;28;45418;-85
2021/11/29 11:35:35;;;;;;;;;0.00;0.00;;;;;5.74;66.24;101106.28;5046311;28;45473;-84